sensor_id;sensor_type;location;lat;lon;timestamp;P1;durP1;ratioP1;P2;durP2;ratioP2
8474;SDS011;4274;52.012;8.448;2023-02-28T00:00:32;39.47;;;3.43;;
8474;SDS011;4274;52.012;8.448;2023-02-28T00:02:58;40.57;;;3.50;;
8474;SDS011;4274;52.012;8.448;2023-02-28T00:05:25;39.17;;;3.63;;
8474;SDS011;4274;52.012;8.448;2023-02-28T00:07:52;40.10;;;3.70;;
8474;SDS011;4274;52.012;8.448;2023-02-28T00:10:19;40.50;;;3.73;;
8474;SDS011;4274;52.012;8.448;2023-02-28T00:12:50;42.00;;;4.30;;
8474;SDS011;4274;52.012;8.448;2023-02-28T00:15:16;40.27;;;4.27;;
8474;SDS011;4274;52.012;8.448;2023-02-28T00:17:43;42.47;;;4.30;;
8474;SDS011;4274;52.012;8.448;2023-02-28T00:20:09;41.40;;;4.20;;
8474;SDS011;4274;52.012;8.448;2023-02-28T00:22:40;42.90;;;4.63;;
8474;SDS011;4274;52.012;8.448;2023-02-28T00:25:08;43.50;;;4.43;;
8474;SDS011;4274;52.012;8.448;2023-02-28T00:27:35;42.60;;;5.00;;
8474;SDS011;4274;52.012;8.448;2023-02-28T00:30:01;40.90;;;4.93;;
8474;SDS011;4274;52.012;8.448;2023-02-28T00:32:27;41.30;;;4.80;;
8474;SDS011;4274;52.012;8.448;2023-02-28T00:34:53;42.73;;;4.73;;
8474;SDS011;4274;52.012;8.448;2023-02-28T00:37:18;41.90;;;4.77;;
8474;SDS011;4274;52.012;8.448;2023-02-28T00:39:44;43.90;;;4.97;;
8474;SDS011;4274;52.012;8.448;2023-02-28T00:42:10;42.50;;;5.27;;
8474;SDS011;4274;52.012;8.448;2023-02-28T00:44:35;44.43;;;5.40;;
8474;SDS011;4274;52.012;8.448;2023-02-28T00:49:29;41.40;;;4.57;;
8474;SDS011;4274;52.012;8.448;2023-02-28T00:51:55;41.77;;;4.87;;
8474;SDS011;4274;52.012;8.448;2023-02-28T00:54:21;46.03;;;6.57;;
8474;SDS011;4274;52.012;8.448;2023-02-28T00:56:47;45.97;;;6.27;;
8474;SDS011;4274;52.012;8.448;2023-02-28T00:59:14;45.93;;;6.63;;
8474;SDS011;4274;52.012;8.448;2023-02-28T01:01:41;42.47;;;5.80;;
8474;SDS011;4274;52.012;8.448;2023-02-28T01:04:07;43.50;;;5.87;;
8474;SDS011;4274;52.012;8.448;2023-02-28T01:06:33;50.00;;;6.27;;
8474;SDS011;4274;52.012;8.448;2023-02-28T01:08:59;44.77;;;5.30;;
8474;SDS011;4274;52.012;8.448;2023-02-28T01:11:25;43.73;;;6.00;;
8474;SDS011;4274;52.012;8.448;2023-02-28T01:13:51;47.33;;;6.57;;
8474;SDS011;4274;52.012;8.448;2023-02-28T01:16:16;43.10;;;5.33;;
8474;SDS011;4274;52.012;8.448;2023-02-28T01:18:42;43.40;;;6.07;;
8474;SDS011;4274;52.012;8.448;2023-02-28T01:21:10;43.20;;;5.87;;
8474;SDS011;4274;52.012;8.448;2023-02-28T01:23:37;45.13;;;5.77;;
8474;SDS011;4274;52.012;8.448;2023-02-28T01:26:08;46.50;;;6.07;;
8474;SDS011;4274;52.012;8.448;2023-02-28T01:28:39;45.87;;;6.40;;
8474;SDS011;4274;52.012;8.448;2023-02-28T01:31:04;44.70;;;5.67;;
8474;SDS011;4274;52.012;8.448;2023-02-28T01:33:31;43.20;;;6.00;;
8474;SDS011;4274;52.012;8.448;2023-02-28T01:36:01;42.67;;;6.10;;
8474;SDS011;4274;52.012;8.448;2023-02-28T01:38:30;43.77;;;6.40;;
8474;SDS011;4274;52.012;8.448;2023-02-28T01:40:55;46.70;;;6.70;;
8474;SDS011;4274;52.012;8.448;2023-02-28T01:45:49;47.17;;;6.43;;
8474;SDS011;4274;52.012;8.448;2023-02-28T01:48:15;45.80;;;6.87;;
8474;SDS011;4274;52.012;8.448;2023-02-28T01:50:42;45.60;;;6.47;;
8474;SDS011;4274;52.012;8.448;2023-02-28T01:53:10;47.07;;;6.60;;
8474;SDS011;4274;52.012;8.448;2023-02-28T01:55:40;43.83;;;6.87;;
8474;SDS011;4274;52.012;8.448;2023-02-28T01:58:10;43.97;;;6.60;;
8474;SDS011;4274;52.012;8.448;2023-02-28T02:00:36;45.43;;;6.37;;
8474;SDS011;4274;52.012;8.448;2023-02-28T02:03:08;44.70;;;6.10;;
8474;SDS011;4274;52.012;8.448;2023-02-28T02:05:36;44.10;;;5.93;;
8474;SDS011;4274;52.012;8.448;2023-02-28T02:08:05;44.93;;;6.70;;
8474;SDS011;4274;52.012;8.448;2023-02-28T02:10:52;44.53;;;6.50;;
8474;SDS011;4274;52.012;8.448;2023-02-28T02:13:38;46.30;;;6.47;;
8474;SDS011;4274;52.012;8.448;2023-02-28T02:27:20;44.43;;;6.43;;
8474;SDS011;4274;52.012;8.448;2023-02-28T02:38:06;42.03;;;5.63;;
8474;SDS011;4274;52.012;8.448;2023-02-28T02:40:37;41.53;;;5.73;;
8474;SDS011;4274;52.012;8.448;2023-02-28T02:43:08;42.20;;;5.70;;
8474;SDS011;4274;52.012;8.448;2023-02-28T02:45:49;43.27;;;5.37;;
8474;SDS011;4274;52.012;8.448;2023-02-28T02:48:27;41.78;;;5.55;;
8474;SDS011;4274;52.012;8.448;2023-02-28T02:50:58;42.10;;;6.53;;
8474;SDS011;4274;52.012;8.448;2023-02-28T02:53:28;42.57;;;5.60;;
8474;SDS011;4274;52.012;8.448;2023-02-28T02:55:59;41.27;;;5.10;;
8474;SDS011;4274;52.012;8.448;2023-02-28T02:58:29;49.50;;;7.20;;
8474;SDS011;4274;52.012;8.448;2023-02-28T03:00:59;46.60;;;6.50;;
8474;SDS011;4274;52.012;8.448;2023-02-28T03:03:27;42.67;;;6.13;;
8474;SDS011;4274;52.012;8.448;2023-02-28T03:05:56;41.83;;;5.43;;
8474;SDS011;4274;52.012;8.448;2023-02-28T03:08:23;43.27;;;5.70;;
8474;SDS011;4274;52.012;8.448;2023-02-28T03:10:50;43.50;;;5.50;;
8474;SDS011;4274;52.012;8.448;2023-02-28T03:21:25;48.63;;;4.93;;
8474;SDS011;4274;52.012;8.448;2023-02-28T03:24:12;44.23;;;5.70;;
8474;SDS011;4274;52.012;8.448;2023-02-28T03:26:45;43.57;;;5.57;;
8474;SDS011;4274;52.012;8.448;2023-02-28T03:29:23;43.93;;;5.77;;
8474;SDS011;4274;52.012;8.448;2023-02-28T03:32:45;44.83;;;5.10;;
8474;SDS011;4274;52.012;8.448;2023-02-28T03:34:51;43.53;;;5.83;;
8474;SDS011;4274;52.012;8.448;2023-02-28T03:37:28;42.80;;;5.50;;
8474;SDS011;4274;52.012;8.448;2023-02-28T03:39:58;48.33;;;8.17;;
8474;SDS011;4274;52.012;8.448;2023-02-28T03:42:27;52.20;;;9.57;;
8474;SDS011;4274;52.012;8.448;2023-02-28T03:44:57;50.70;;;8.53;;
8474;SDS011;4274;52.012;8.448;2023-02-28T03:47:31;56.67;;;7.53;;
8474;SDS011;4274;52.012;8.448;2023-02-28T03:50:07;40.80;;;5.13;;
8474;SDS011;4274;52.012;8.448;2023-02-28T03:52:36;43.23;;;5.60;;
8474;SDS011;4274;52.012;8.448;2023-02-28T03:55:10;40.87;;;5.57;;
8474;SDS011;4274;52.012;8.448;2023-02-28T04:00:10;41.00;;;5.70;;
8474;SDS011;4274;52.012;8.448;2023-02-28T04:02:42;41.30;;;4.80;;
8474;SDS011;4274;52.012;8.448;2023-02-28T04:05:08;40.57;;;4.80;;
8474;SDS011;4274;52.012;8.448;2023-02-28T04:07:34;39.80;;;4.53;;
8474;SDS011;4274;52.012;8.448;2023-02-28T04:10:00;40.33;;;4.20;;
8474;SDS011;4274;52.012;8.448;2023-02-28T04:12:26;39.60;;;3.93;;
8474;SDS011;4274;52.012;8.448;2023-02-28T04:14:51;39.00;;;3.87;;
8474;SDS011;4274;52.012;8.448;2023-02-28T04:17:17;40.60;;;3.93;;
8474;SDS011;4274;52.012;8.448;2023-02-28T04:19:43;39.53;;;3.60;;
8474;SDS011;4274;52.012;8.448;2023-02-28T04:22:09;40.50;;;4.67;;
8474;SDS011;4274;52.012;8.448;2023-02-28T04:24:35;41.50;;;5.60;;
8474;SDS011;4274;52.012;8.448;2023-02-28T04:27:01;40.13;;;4.40;;
8474;SDS011;4274;52.012;8.448;2023-02-28T04:29:31;38.83;;;3.73;;
8474;SDS011;4274;52.012;8.448;2023-02-28T04:31:57;39.70;;;3.70;;
8474;SDS011;4274;52.012;8.448;2023-02-28T04:34:24;40.07;;;4.37;;
8474;SDS011;4274;52.012;8.448;2023-02-28T04:36:54;38.57;;;3.40;;
8474;SDS011;4274;52.012;8.448;2023-02-28T04:39:24;40.27;;;4.10;;
8474;SDS011;4274;52.012;8.448;2023-02-28T04:41:50;42.57;;;3.73;;
8474;SDS011;4274;52.012;8.448;2023-02-28T04:44:16;40.93;;;4.10;;
8474;SDS011;4274;52.012;8.448;2023-02-28T04:46:42;41.53;;;4.23;;
8474;SDS011;4274;52.012;8.448;2023-02-28T04:49:09;41.40;;;4.17;;
8474;SDS011;4274;52.012;8.448;2023-02-28T04:51:36;42.10;;;4.07;;
8474;SDS011;4274;52.012;8.448;2023-02-28T04:54:02;42.37;;;4.90;;
8474;SDS011;4274;52.012;8.448;2023-02-28T04:56:27;40.50;;;4.73;;
8474;SDS011;4274;52.012;8.448;2023-02-28T04:58:53;42.33;;;4.63;;
8474;SDS011;4274;52.012;8.448;2023-02-28T05:01:24;41.87;;;4.93;;
8474;SDS011;4274;52.012;8.448;2023-02-28T05:03:51;44.97;;;4.93;;
8474;SDS011;4274;52.012;8.448;2023-02-28T05:06:18;41.13;;;4.67;;
8474;SDS011;4274;52.012;8.448;2023-02-28T05:08:44;44.63;;;5.00;;
8474;SDS011;4274;52.012;8.448;2023-02-28T05:13:43;40.00;;;4.93;;
8474;SDS011;4274;52.012;8.448;2023-02-28T05:16:09;40.87;;;5.07;;
8474;SDS011;4274;52.012;8.448;2023-02-28T05:18:35;43.00;;;5.37;;
8474;SDS011;4274;52.012;8.448;2023-02-28T05:21:00;42.83;;;5.27;;
8474;SDS011;4274;52.012;8.448;2023-02-28T05:23:27;40.40;;;5.20;;
8474;SDS011;4274;52.012;8.448;2023-02-28T05:25:52;42.40;;;5.53;;
8474;SDS011;4274;52.012;8.448;2023-02-28T05:28:19;43.23;;;5.43;;
8474;SDS011;4274;52.012;8.448;2023-02-28T05:30:45;42.37;;;5.83;;
8474;SDS011;4274;52.012;8.448;2023-02-28T05:33:11;41.70;;;5.57;;
8474;SDS011;4274;52.012;8.448;2023-02-28T05:35:38;41.50;;;5.33;;
8474;SDS011;4274;52.012;8.448;2023-02-28T05:38:09;42.20;;;5.77;;
8474;SDS011;4274;52.012;8.448;2023-02-28T05:40:35;41.80;;;5.00;;
8474;SDS011;4274;52.012;8.448;2023-02-28T05:43:04;43.60;;;5.83;;
8474;SDS011;4274;52.012;8.448;2023-02-28T05:45:29;42.87;;;5.80;;
8474;SDS011;4274;52.012;8.448;2023-02-28T05:47:55;43.70;;;6.23;;
8474;SDS011;4274;52.012;8.448;2023-02-28T05:50:21;46.87;;;7.33;;
8474;SDS011;4274;52.012;8.448;2023-02-28T05:52:50;43.77;;;5.80;;
8474;SDS011;4274;52.012;8.448;2023-02-28T05:55:16;43.83;;;5.90;;
8474;SDS011;4274;52.012;8.448;2023-02-28T05:57:42;42.00;;;6.10;;
8474;SDS011;4274;52.012;8.448;2023-02-28T06:00:08;43.30;;;6.70;;
8474;SDS011;4274;52.012;8.448;2023-02-28T06:02:34;41.10;;;6.67;;
8474;SDS011;4274;52.012;8.448;2023-02-28T06:04:59;41.67;;;5.70;;
8474;SDS011;4274;52.012;8.448;2023-02-28T06:07:25;44.50;;;6.57;;
8474;SDS011;4274;52.012;8.448;2023-02-28T06:09:50;42.87;;;6.23;;
8474;SDS011;4274;52.012;8.448;2023-02-28T06:12:16;46.00;;;6.43;;
8474;SDS011;4274;52.012;8.448;2023-02-28T06:14:42;51.63;;;6.37;;
8474;SDS011;4274;52.012;8.448;2023-02-28T06:17:08;43.70;;;7.47;;
8474;SDS011;4274;52.012;8.448;2023-02-28T06:19:35;42.83;;;5.87;;
8474;SDS011;4274;52.012;8.448;2023-02-28T06:22:03;41.57;;;5.13;;
8474;SDS011;4274;52.012;8.448;2023-02-28T06:24:29;42.70;;;6.07;;
8474;SDS011;4274;52.012;8.448;2023-02-28T06:26:56;41.60;;;5.97;;
8474;SDS011;4274;52.012;8.448;2023-02-28T06:29:23;40.40;;;5.47;;
8474;SDS011;4274;52.012;8.448;2023-02-28T06:31:49;41.20;;;5.63;;
8474;SDS011;4274;52.012;8.448;2023-02-28T06:34:15;40.17;;;5.00;;
8474;SDS011;4274;52.012;8.448;2023-02-28T06:36:41;41.23;;;5.30;;
8474;SDS011;4274;52.012;8.448;2023-02-28T06:39:07;41.60;;;5.87;;
8474;SDS011;4274;52.012;8.448;2023-02-28T06:41:34;41.03;;;5.23;;
8474;SDS011;4274;52.012;8.448;2023-02-28T06:44:03;42.50;;;5.13;;
8474;SDS011;4274;52.012;8.448;2023-02-28T06:46:30;41.27;;;4.80;;
8474;SDS011;4274;52.012;8.448;2023-02-28T06:48:57;40.37;;;4.43;;
8474;SDS011;4274;52.012;8.448;2023-02-28T06:51:22;40.67;;;5.20;;
8474;SDS011;4274;52.012;8.448;2023-02-28T06:53:49;41.57;;;5.60;;
8474;SDS011;4274;52.012;8.448;2023-02-28T06:56:16;44.43;;;7.23;;
8474;SDS011;4274;52.012;8.448;2023-02-28T06:58:45;48.23;;;5.30;;
8474;SDS011;4274;52.012;8.448;2023-02-28T07:01:14;42.10;;;5.20;;
8474;SDS011;4274;52.012;8.448;2023-02-28T07:03:40;42.60;;;5.57;;
8474;SDS011;4274;52.012;8.448;2023-02-28T07:06:06;42.47;;;5.93;;
8474;SDS011;4274;52.012;8.448;2023-02-28T07:08:31;42.37;;;5.70;;
8474;SDS011;4274;52.012;8.448;2023-02-28T07:10:58;47.13;;;5.33;;
8474;SDS011;4274;52.012;8.448;2023-02-28T07:13:23;43.83;;;5.97;;
8474;SDS011;4274;52.012;8.448;2023-02-28T07:16:09;43.80;;;5.93;;
8474;SDS011;4274;52.012;8.448;2023-02-28T07:18:36;44.40;;;5.63;;
8474;SDS011;4274;52.012;8.448;2023-02-28T07:21:03;42.87;;;5.50;;
8474;SDS011;4274;52.012;8.448;2023-02-28T07:23:31;41.87;;;5.40;;
8474;SDS011;4274;52.012;8.448;2023-02-28T07:25:57;41.47;;;5.60;;
8474;SDS011;4274;52.012;8.448;2023-02-28T07:28:23;40.87;;;4.87;;
8474;SDS011;4274;52.012;8.448;2023-02-28T07:30:49;40.53;;;5.57;;
8474;SDS011;4274;52.012;8.448;2023-02-28T07:33:15;50.40;;;4.73;;
8474;SDS011;4274;52.012;8.448;2023-02-28T07:35:40;41.43;;;4.90;;
8474;SDS011;4274;52.012;8.448;2023-02-28T07:38:06;42.03;;;4.83;;
8474;SDS011;4274;52.012;8.448;2023-02-28T07:40:35;48.47;;;5.67;;
8474;SDS011;4274;52.012;8.448;2023-02-28T07:43:01;43.73;;;5.20;;
8474;SDS011;4274;52.012;8.448;2023-02-28T07:45:28;43.27;;;5.33;;
8474;SDS011;4274;52.012;8.448;2023-02-28T07:47:54;39.67;;;4.33;;
8474;SDS011;4274;52.012;8.448;2023-02-28T07:50:20;42.50;;;4.20;;
8474;SDS011;4274;52.012;8.448;2023-02-28T07:52:46;41.13;;;4.33;;
8474;SDS011;4274;52.012;8.448;2023-02-28T07:55:12;40.57;;;4.27;;
8474;SDS011;4274;52.012;8.448;2023-02-28T07:57:38;40.00;;;4.30;;
8474;SDS011;4274;52.012;8.448;2023-02-28T08:00:06;41.83;;;4.60;;
8474;SDS011;4274;52.012;8.448;2023-02-28T08:02:34;40.00;;;4.43;;
8474;SDS011;4274;52.012;8.448;2023-02-28T08:05:00;41.83;;;5.37;;
8474;SDS011;4274;52.012;8.448;2023-02-28T08:07:26;40.47;;;4.60;;
8474;SDS011;4274;52.012;8.448;2023-02-28T08:09:51;41.97;;;5.23;;
8474;SDS011;4274;52.012;8.448;2023-02-28T08:12:17;42.20;;;4.37;;
8474;SDS011;4274;52.012;8.448;2023-02-28T08:14:42;44.43;;;4.77;;
8474;SDS011;4274;52.012;8.448;2023-02-28T08:17:08;42.30;;;4.97;;
8474;SDS011;4274;52.012;8.448;2023-02-28T08:19:35;55.43;;;5.00;;
8474;SDS011;4274;52.012;8.448;2023-02-28T08:22:00;46.77;;;5.00;;
8474;SDS011;4274;52.012;8.448;2023-02-28T08:24:26;46.83;;;5.37;;
8474;SDS011;4274;52.012;8.448;2023-02-28T08:26:52;45.07;;;5.37;;
8474;SDS011;4274;52.012;8.448;2023-02-28T08:29:17;45.67;;;5.23;;
8474;SDS011;4274;52.012;8.448;2023-02-28T08:31:43;43.27;;;5.10;;
8474;SDS011;4274;52.012;8.448;2023-02-28T08:34:09;45.37;;;4.70;;
8474;SDS011;4274;52.012;8.448;2023-02-28T08:36:37;43.87;;;4.97;;
8474;SDS011;4274;52.012;8.448;2023-02-28T08:39:03;44.43;;;4.60;;
8474;SDS011;4274;52.012;8.448;2023-02-28T08:41:29;44.10;;;5.03;;
8474;SDS011;4274;52.012;8.448;2023-02-28T08:43:55;45.00;;;5.30;;
8474;SDS011;4274;52.012;8.448;2023-02-28T08:46:21;43.80;;;4.73;;
8474;SDS011;4274;52.012;8.448;2023-02-28T08:48:51;43.63;;;5.03;;
8474;SDS011;4274;52.012;8.448;2023-02-28T08:51:17;44.90;;;4.57;;
8474;SDS011;4274;52.012;8.448;2023-02-28T08:53:47;44.30;;;3.70;;
8474;SDS011;4274;52.012;8.448;2023-02-28T08:56:14;46.20;;;5.00;;
8474;SDS011;4274;52.012;8.448;2023-02-28T08:58:41;43.97;;;4.40;;
8474;SDS011;4274;52.012;8.448;2023-02-28T09:01:14;46.43;;;3.80;;
8474;SDS011;4274;52.012;8.448;2023-02-28T09:03:45;42.97;;;4.00;;
8474;SDS011;4274;52.012;8.448;2023-02-28T09:06:13;47.20;;;4.57;;
8474;SDS011;4274;52.012;8.448;2023-02-28T09:08:40;49.13;;;4.90;;
8474;SDS011;4274;52.012;8.448;2023-02-28T09:11:05;45.37;;;4.10;;
8474;SDS011;4274;52.012;8.448;2023-02-28T09:13:32;46.77;;;5.10;;
8474;SDS011;4274;52.012;8.448;2023-02-28T09:15:59;44.33;;;4.23;;
8474;SDS011;4274;52.012;8.448;2023-02-28T09:18:25;43.80;;;4.83;;
8474;SDS011;4274;52.012;8.448;2023-02-28T09:20:51;43.77;;;4.13;;
8474;SDS011;4274;52.012;8.448;2023-02-28T09:23:17;42.40;;;3.60;;
8474;SDS011;4274;52.012;8.448;2023-02-28T09:25:46;42.80;;;3.77;;
8474;SDS011;4274;52.012;8.448;2023-02-28T09:28:13;45.73;;;4.23;;
8474;SDS011;4274;52.012;8.448;2023-02-28T09:30:40;46.37;;;5.77;;
8474;SDS011;4274;52.012;8.448;2023-02-28T09:33:07;45.30;;;5.50;;
8474;SDS011;4274;52.012;8.448;2023-02-28T09:35:33;48.00;;;6.40;;
8474;SDS011;4274;52.012;8.448;2023-02-28T09:37:58;45.53;;;3.60;;
8474;SDS011;4274;52.012;8.448;2023-02-28T09:40:24;50.20;;;7.20;;
8474;SDS011;4274;52.012;8.448;2023-02-28T09:42:51;49.47;;;6.93;;
8474;SDS011;4274;52.012;8.448;2023-02-28T09:45:22;68.43;;;16.60;;
8474;SDS011;4274;52.012;8.448;2023-02-28T09:47:59;55.87;;;11.10;;
8474;SDS011;4274;52.012;8.448;2023-02-28T09:53:15;46.37;;;5.47;;
8474;SDS011;4274;52.012;8.448;2023-02-28T09:55:59;47.30;;;4.83;;
8474;SDS011;4274;52.012;8.448;2023-02-28T09:58:29;49.57;;;7.40;;
8474;SDS011;4274;52.012;8.448;2023-02-28T10:01:12;45.50;;;4.70;;
8474;SDS011;4274;52.012;8.448;2023-02-28T10:03:43;44.00;;;4.07;;
8474;SDS011;4274;52.012;8.448;2023-02-28T10:06:20;42.43;;;3.50;;
8474;SDS011;4274;52.012;8.448;2023-02-28T10:11:21;44.30;;;4.43;;
8474;SDS011;4274;52.012;8.448;2023-02-28T10:13:59;54.63;;;10.93;;
8474;SDS011;4274;52.012;8.448;2023-02-28T10:16:39;43.17;;;4.10;;
8474;SDS011;4274;52.012;8.448;2023-02-28T10:19:30;48.80;;;6.97;;
8474;SDS011;4274;52.012;8.448;2023-02-28T10:24:39;44.30;;;4.40;;
8474;SDS011;4274;52.012;8.448;2023-02-28T10:29:42;43.90;;;3.00;;
8474;SDS011;4274;52.012;8.448;2023-02-28T10:32:09;45.10;;;3.40;;
8474;SDS011;4274;52.012;8.448;2023-02-28T10:34:39;42.07;;;2.90;;
8474;SDS011;4274;52.012;8.448;2023-02-28T10:37:04;43.80;;;4.00;;
8474;SDS011;4274;52.012;8.448;2023-02-28T10:39:37;42.43;;;3.30;;
8474;SDS011;4274;52.012;8.448;2023-02-28T10:42:28;42.57;;;3.07;;
8474;SDS011;4274;52.012;8.448;2023-02-28T10:47:35;42.70;;;2.77;;
8474;SDS011;4274;52.012;8.448;2023-02-28T10:56:12;41.87;;;2.90;;
8474;SDS011;4274;52.012;8.448;2023-02-28T11:01:46;42.03;;;2.33;;
8474;SDS011;4274;52.012;8.448;2023-02-28T11:07:02;43.20;;;2.60;;
8474;SDS011;4274;52.012;8.448;2023-02-28T11:09:49;42.80;;;2.77;;
8474;SDS011;4274;52.012;8.448;2023-02-28T11:12:39;43.50;;;3.00;;
8474;SDS011;4274;52.012;8.448;2023-02-28T11:17:45;41.60;;;2.83;;
8474;SDS011;4274;52.012;8.448;2023-02-28T11:20:28;42.00;;;2.77;;
8474;SDS011;4274;52.012;8.448;2023-02-28T11:22:55;43.57;;;3.10;;
8474;SDS011;4274;52.012;8.448;2023-02-28T11:28:37;41.07;;;2.90;;
8474;SDS011;4274;52.012;8.448;2023-02-28T11:33:29;41.87;;;2.97;;
8474;SDS011;4274;52.012;8.448;2023-02-28T11:36:17;41.80;;;2.70;;
8474;SDS011;4274;52.012;8.448;2023-02-28T11:38:47;41.17;;;2.50;;
8474;SDS011;4274;52.012;8.448;2023-02-28T11:47:07;42.23;;;2.40;;
8474;SDS011;4274;52.012;8.448;2023-02-28T11:49:37;42.27;;;2.57;;
8474;SDS011;4274;52.012;8.448;2023-02-28T11:52:20;43.47;;;2.63;;
8474;SDS011;4274;52.012;8.448;2023-02-28T11:55:08;45.40;;;3.20;;
8474;SDS011;4274;52.012;8.448;2023-02-28T12:03:58;42.87;;;2.77;;
8474;SDS011;4274;52.012;8.448;2023-02-28T12:11:38;42.67;;;2.80;;
8474;SDS011;4274;52.012;8.448;2023-02-28T12:17:26;42.60;;;2.50;;
8474;SDS011;4274;52.012;8.448;2023-02-28T12:28:36;44.00;;;3.23;;
8474;SDS011;4274;52.012;8.448;2023-02-28T12:33:46;43.90;;;2.90;;
8474;SDS011;4274;52.012;8.448;2023-02-28T12:36:17;42.93;;;2.67;;
8474;SDS011;4274;52.012;8.448;2023-02-28T12:41:19;43.80;;;3.50;;
8474;SDS011;4274;52.012;8.448;2023-02-28T12:43:53;42.80;;;3.50;;
8474;SDS011;4274;52.012;8.448;2023-02-28T12:46:27;44.13;;;3.53;;
8474;SDS011;4274;52.012;8.448;2023-02-28T12:48:58;42.70;;;3.10;;
8474;SDS011;4274;52.012;8.448;2023-02-28T12:51:26;44.50;;;3.33;;
8474;SDS011;4274;52.012;8.448;2023-02-28T12:56:40;45.63;;;4.20;;
8474;SDS011;4274;52.012;8.448;2023-02-28T13:04:53;42.90;;;3.13;;
8474;SDS011;4274;52.012;8.448;2023-02-28T13:10:33;44.23;;;3.40;;
8474;SDS011;4274;52.012;8.448;2023-02-28T13:13:05;43.73;;;3.40;;
8474;SDS011;4274;52.012;8.448;2023-02-28T13:15:30;42.37;;;3.10;;
8474;SDS011;4274;52.012;8.448;2023-02-28T13:18:00;43.83;;;3.00;;
8474;SDS011;4274;52.012;8.448;2023-02-28T13:20:26;45.90;;;3.13;;
8474;SDS011;4274;52.012;8.448;2023-02-28T13:23:01;44.37;;;3.10;;
8474;SDS011;4274;52.012;8.448;2023-02-28T13:27:57;42.90;;;3.07;;
8474;SDS011;4274;52.012;8.448;2023-02-28T13:36:01;43.67;;;3.17;;
8474;SDS011;4274;52.012;8.448;2023-02-28T13:38:37;43.30;;;3.00;;
8474;SDS011;4274;52.012;8.448;2023-02-28T13:46:31;43.33;;;3.13;;
8474;SDS011;4274;52.012;8.448;2023-02-28T13:51:53;46.03;;;4.47;;
8474;SDS011;4274;52.012;8.448;2023-02-28T14:08:43;45.37;;;3.50;;
8474;SDS011;4274;52.012;8.448;2023-02-28T14:11:32;44.60;;;3.40;;
8474;SDS011;4274;52.012;8.448;2023-02-28T14:14:05;44.90;;;3.23;;
8474;SDS011;4274;52.012;8.448;2023-02-28T14:16:35;43.37;;;3.40;;
8474;SDS011;4274;52.012;8.448;2023-02-28T14:19:11;44.37;;;3.30;;
8474;SDS011;4274;52.012;8.448;2023-02-28T14:21:38;45.30;;;4.47;;
8474;SDS011;4274;52.012;8.448;2023-02-28T14:24:31;43.87;;;3.00;;
8474;SDS011;4274;52.012;8.448;2023-02-28T14:37:40;43.40;;;3.53;;
8474;SDS011;4274;52.012;8.448;2023-02-28T14:40:26;42.93;;;3.30;;
8474;SDS011;4274;52.012;8.448;2023-02-28T14:42:56;42.97;;;3.63;;
8474;SDS011;4274;52.012;8.448;2023-02-28T14:45:24;45.13;;;3.73;;
8474;SDS011;4274;52.012;8.448;2023-02-28T14:47:57;43.17;;;3.70;;
8474;SDS011;4274;52.012;8.448;2023-02-28T14:50:29;44.10;;;3.70;;
8474;SDS011;4274;52.012;8.448;2023-02-28T14:52:56;44.60;;;4.00;;
8474;SDS011;4274;52.012;8.448;2023-02-28T14:55:25;43.83;;;4.03;;
8474;SDS011;4274;52.012;8.448;2023-02-28T14:57:54;43.13;;;3.70;;
8474;SDS011;4274;52.012;8.448;2023-02-28T15:00:23;43.10;;;4.27;;
8474;SDS011;4274;52.012;8.448;2023-02-28T15:02:51;41.90;;;3.70;;
8474;SDS011;4274;52.012;8.448;2023-02-28T15:07:48;41.17;;;3.40;;
8474;SDS011;4274;52.012;8.448;2023-02-28T15:10:26;41.60;;;3.30;;
8474;SDS011;4274;52.012;8.448;2023-02-28T15:12:53;41.50;;;3.40;;
8474;SDS011;4274;52.012;8.448;2023-02-28T15:15:21;42.47;;;3.83;;
8474;SDS011;4274;52.012;8.448;2023-02-28T15:17:49;51.10;;;3.70;;
8474;SDS011;4274;52.012;8.448;2023-02-28T15:20:18;42.00;;;3.53;;
8474;SDS011;4274;52.012;8.448;2023-02-28T15:22:45;42.07;;;3.77;;
8474;SDS011;4274;52.012;8.448;2023-02-28T15:25:13;43.43;;;4.10;;
8474;SDS011;4274;52.012;8.448;2023-02-28T15:27:47;42.53;;;3.90;;
8474;SDS011;4274;52.012;8.448;2023-02-28T15:30:20;45.90;;;4.20;;
8474;SDS011;4274;52.012;8.448;2023-02-28T15:35:36;46.03;;;4.00;;
8474;SDS011;4274;52.012;8.448;2023-02-28T15:38:04;41.20;;;3.63;;
8474;SDS011;4274;52.012;8.448;2023-02-28T15:40:52;43.07;;;4.13;;
8474;SDS011;4274;52.012;8.448;2023-02-28T15:43:29;42.37;;;3.90;;
8474;SDS011;4274;52.012;8.448;2023-02-28T15:48:53;40.67;;;3.37;;
8474;SDS011;4274;52.012;8.448;2023-02-28T15:56:29;42.87;;;3.70;;
8474;SDS011;4274;52.012;8.448;2023-02-28T15:59:05;40.70;;;3.57;;
8474;SDS011;4274;52.012;8.448;2023-02-28T16:01:33;40.83;;;3.70;;
8474;SDS011;4274;52.012;8.448;2023-02-28T16:04:00;42.70;;;4.10;;
8474;SDS011;4274;52.012;8.448;2023-02-28T16:06:44;49.03;;;3.87;;
8474;SDS011;4274;52.012;8.448;2023-02-28T16:09:14;41.97;;;4.03;;
8474;SDS011;4274;52.012;8.448;2023-02-28T16:11:42;45.00;;;3.67;;
8474;SDS011;4274;52.012;8.448;2023-02-28T16:14:14;41.60;;;3.70;;
8474;SDS011;4274;52.012;8.448;2023-02-28T16:16:52;41.90;;;4.00;;
8474;SDS011;4274;52.012;8.448;2023-02-28T16:19:20;41.57;;;4.00;;
8474;SDS011;4274;52.012;8.448;2023-02-28T16:21:46;42.70;;;3.80;;
8474;SDS011;4274;52.012;8.448;2023-02-28T16:24:13;40.93;;;4.07;;
8474;SDS011;4274;52.012;8.448;2023-02-28T16:26:39;41.40;;;3.63;;
8474;SDS011;4274;52.012;8.448;2023-02-28T16:29:06;43.37;;;4.33;;
8474;SDS011;4274;52.012;8.448;2023-02-28T16:31:36;49.03;;;4.47;;
8474;SDS011;4274;52.012;8.448;2023-02-28T16:34:03;43.20;;;3.80;;
8474;SDS011;4274;52.012;8.448;2023-02-28T16:36:29;41.50;;;4.20;;
8474;SDS011;4274;52.012;8.448;2023-02-28T16:38:55;42.30;;;4.20;;
8474;SDS011;4274;52.012;8.448;2023-02-28T16:41:22;41.27;;;3.63;;
8474;SDS011;4274;52.012;8.448;2023-02-28T16:43:51;41.37;;;4.27;;
8474;SDS011;4274;52.012;8.448;2023-02-28T16:46:19;45.90;;;4.50;;
8474;SDS011;4274;52.012;8.448;2023-02-28T16:48:46;42.83;;;4.70;;
8474;SDS011;4274;52.012;8.448;2023-02-28T16:51:16;47.80;;;6.37;;
8474;SDS011;4274;52.012;8.448;2023-02-28T16:53:42;42.93;;;4.10;;
8474;SDS011;4274;52.012;8.448;2023-02-28T16:56:26;44.43;;;4.47;;
8474;SDS011;4274;52.012;8.448;2023-02-28T16:58:52;41.47;;;4.50;;
8474;SDS011;4274;52.012;8.448;2023-02-28T17:01:24;41.50;;;4.00;;
8474;SDS011;4274;52.012;8.448;2023-02-28T17:03:50;45.40;;;5.10;;
8474;SDS011;4274;52.012;8.448;2023-02-28T17:06:19;44.40;;;4.50;;
8474;SDS011;4274;52.012;8.448;2023-02-28T17:08:48;44.17;;;5.47;;
8474;SDS011;4274;52.012;8.448;2023-02-28T17:11:17;44.63;;;5.17;;
8474;SDS011;4274;52.012;8.448;2023-02-28T17:13:43;41.67;;;4.50;;
8474;SDS011;4274;52.012;8.448;2023-02-28T17:16:27;44.23;;;6.43;;
8474;SDS011;4274;52.012;8.448;2023-02-28T17:18:56;48.00;;;7.87;;
8474;SDS011;4274;52.012;8.448;2023-02-28T17:21:24;46.83;;;7.70;;
8474;SDS011;4274;52.012;8.448;2023-02-28T17:23:49;41.90;;;4.57;;
8474;SDS011;4274;52.012;8.448;2023-02-28T17:26:16;49.73;;;4.97;;
8474;SDS011;4274;52.012;8.448;2023-02-28T17:28:47;44.77;;;4.97;;
8474;SDS011;4274;52.012;8.448;2023-02-28T17:31:13;48.93;;;7.87;;
8474;SDS011;4274;52.012;8.448;2023-02-28T17:33:39;44.03;;;6.40;;
8474;SDS011;4274;52.012;8.448;2023-02-28T17:36:05;44.30;;;6.23;;
8474;SDS011;4274;52.012;8.448;2023-02-28T17:38:31;48.70;;;7.10;;
8474;SDS011;4274;52.012;8.448;2023-02-28T17:40:57;46.70;;;5.80;;
8474;SDS011;4274;52.012;8.448;2023-02-28T17:43:23;41.70;;;4.47;;
8474;SDS011;4274;52.012;8.448;2023-02-28T17:45:50;41.80;;;4.13;;
8474;SDS011;4274;52.012;8.448;2023-02-28T17:48:16;43.00;;;5.30;;
8474;SDS011;4274;52.012;8.448;2023-02-28T17:50:42;43.17;;;4.70;;
8474;SDS011;4274;52.012;8.448;2023-02-28T17:53:07;43.17;;;5.33;;
8474;SDS011;4274;52.012;8.448;2023-02-28T17:55:33;42.17;;;4.27;;
8474;SDS011;4274;52.012;8.448;2023-02-28T17:57:59;46.70;;;6.00;;
8474;SDS011;4274;52.012;8.448;2023-02-28T18:00:25;45.53;;;5.80;;
8474;SDS011;4274;52.012;8.448;2023-02-28T18:02:51;50.50;;;6.63;;